地図

経路データ

SID SEASON NUMBER BASIN SUBBASIN NAME ISO_TIME NATURE LAT LON WMO_WIND WMO_PRES WMO_AGENCY TRACK_TYPE DIST2LAND LANDFALL IFLAG USA_AGENCY USA_ATCF_ID USA_LAT USA_LON USA_RECORD USA_STATUS USA_WIND USA_PRES USA_SSHS USA_R34_NE USA_R34_SE USA_R34_SW USA_R34_NW USA_R50_NE USA_R50_SE USA_R50_SW USA_R50_NW USA_R64_NE USA_R64_SE USA_R64_SW USA_R64_NW USA_POCI USA_ROCI USA_RMW USA_EYE TOKYO_LAT TOKYO_LON TOKYO_GRADE TOKYO_WIND TOKYO_PRES TOKYO_R50_DIR TOKYO_R50_LONG TOKYO_R50_SHORT TOKYO_R30_DIR TOKYO_R30_LONG TOKYO_R30_SHORT TOKYO_LAND CMA_LAT CMA_LON CMA_CAT CMA_WIND CMA_PRES HKO_LAT HKO_LON HKO_CAT HKO_WIND HKO_PRES NEWDELHI_LAT NEWDELHI_LON NEWDELHI_GRADE NEWDELHI_WIND NEWDELHI_PRES NEWDELHI_CI NEWDELHI_DP NEWDELHI_POCI REUNION_LAT REUNION_LON REUNION_TYPE REUNION_WIND REUNION_PRES REUNION_TNUM REUNION_CI REUNION_RMW REUNION_R34_NE REUNION_R34_SE REUNION_R34_SW REUNION_R34_NW REUNION_R50_NE REUNION_R50_SE REUNION_R50_SW REUNION_R50_NW REUNION_R64_NE REUNION_R64_SE REUNION_R64_SW REUNION_R64_NW BOM_LAT BOM_LON BOM_TYPE BOM_WIND BOM_PRES BOM_TNUM BOM_CI BOM_RMW BOM_R34_NE BOM_R34_SE BOM_R34_SW BOM_R34_NW BOM_R50_NE BOM_R50_SE BOM_R50_SW BOM_R50_NW BOM_R64_NE BOM_R64_SE BOM_R64_SW BOM_R64_NW BOM_ROCI BOM_POCI BOM_EYE BOM_POS_METHOD BOM_PRES_METHOD NADI_LAT NADI_LON NADI_CAT NADI_WIND NADI_PRES WELLINGTON_LAT WELLINGTON_LON WELLINGTON_WIND WELLINGTON_PRES DS824_LAT DS824_LON DS824_STAGE DS824_WIND DS824_PRES TD9636_LAT TD9636_LON TD9636_STAGE TD9636_WIND TD9636_PRES TD9635_LAT TD9635_LON TD9635_WIND TD9635_PRES TD9635_ROCI NEUMANN_LAT NEUMANN_LON NEUMANN_CLASS NEUMANN_WIND NEUMANN_PRES MLC_LAT MLC_LON MLC_CLASS MLC_WIND MLC_PRES USA_GUST BOM_GUST BOM_GUST_PER REUNION_GUST REUNION_GUST_PER USA_SEAHGT USA_SEARAD_NE USA_SEARAD_SE USA_SEARAD_SW USA_SEARAD_NW STORM_SPEED STORM_DIR
1971184N11262 1971 62 EP MM DENISE 1971-07-02 12:00:00 TS 10.8000 -98.4000 25 hurdat_epa main 571 565 O________OO___ hurdat_epa EP041971 10.8000 -98.4000 TD 25 -1 10.8000 -98.4000 TC 25 10.8000 -98.4000 1 7 298
1971184N11262 1971 62 EP MM DENISE 1971-07-02 15:00:00 TS 10.9529 -98.6960 main 562 561 P________PP___ EP041971 10.9626 -98.6974 TD 25 -1 10.9626 -98.6974 TC 25 10.9143 -98.6904 1 7 296
1971184N11262 1971 62 EP MM DENISE 1971-07-02 18:00:00 TS 11.0866 -98.9989 25 hurdat_epa main 563 558 O________OP___ hurdat_epa EP041971 11.1000 -99.0000 TD 25 -1 11.1000 -99.0000 TC 25 11.0328 -98.9947 1 7 291
1971184N11262 1971 62 EP MM DENISE 1971-07-02 21:00:00 TS 11.1919 -99.3214 main 561 557 P________PP___ EP041971 11.1999 -99.3201 TD 25 -1 11.1999 -99.3201 TC 25 11.1599 -99.3267 1 7 287
1971184N11262 1971 62 EP MM DENISE 1971-07-03 00:00:00 TS 11.3000 -99.7000 25 hurdat_epa main 564 562 O________OO___ hurdat_epa EP041971 11.3000 -99.7000 TD 25 -1 11.3000 -99.7000 TC 25 11.3000 -99.7000 1 9 287
1971184N11262 1971 62 EP MM DENISE 1971-07-03 03:00:00 TS 11.4392 -100.161 main 575 564 P________PP___ EP041971 11.4350 -100.170 TD 25 -1 11.4350 -100.170 TC 25 11.4561 -100.127 1 10 288
1971184N11262 1971 62 EP MM DENISE 1971-07-03 06:00:00 TS 11.6053 -100.683 25 hurdat_epa main 572 567 O________OP___ hurdat_epa EP041971 11.6000 -100.700 TD 25 -1 11.6000 -100.700 TC 25 11.6267 -100.616 1 11 289
1971184N11262 1971 62 EP MM DENISE 1971-07-03 09:00:00 TS 11.7896 -101.204 main 571 567 P________PP___ EP041971 11.7847 -101.213 TD 25 -1 11.7847 -101.213 TC 25 11.8090 -101.171 1 12 290
1971184N11262 1971 62 EP MM DENISE 1971-07-03 12:00:00 TS 12.0000 -101.800 25 hurdat_epa main 572 566 O________OO___ hurdat_epa EP041971 12.0000 -101.800 TD 25 -1 12.0000 -101.800 TC 25 12.0000 -101.800 1 14 290
1971184N11262 1971 62 EP MM DENISE 1971-07-03 15:00:00 TS 12.2505 -102.523 main 577 577 P________PP___ EP041971 12.2575 -102.512 TD 25 -1 12.2575 -102.512 TC 25 12.2226 -102.567 1 16 288
1971184N11262 1971 62 EP MM DENISE 1971-07-03 18:00:00 TS 12.4894 -103.319 25 hurdat_epa main 587 587 O________OP___ hurdat_epa EP041971 12.5000 -103.300 TD 25 -1 12.5000 -103.300 TC 25 12.4469 -103.394 1 17 285
1971184N11262 1971 62 EP MM DENISE 1971-07-03 21:00:00 TS 12.6738 -104.168 main 613 613 P________PP___ EP041971 12.6803 -104.160 TD 25 -1 12.6803 -104.160 TC 25 12.6476 -104.199 1 16 281
1971184N11262 1971 62 EP MM DENISE 1971-07-04 00:00:00 TS 12.8000 -104.900 25 hurdat_epa main 630 630 O________OO___ hurdat_epa EP041971 12.8000 -104.900 TD 25 -1 12.8000 -104.900 TC 25 12.8000 -104.900 1 11 280
1971184N11262 1971 62 EP MM DENISE 1971-07-04 03:00:00 TS 12.8731 -105.318 main 634 634 P________PP___ EP041971 12.8720 -105.310 TD 25 -1 12.8720 -105.310 TC 25 12.8775 -105.350 1 7 278
1971184N11262 1971 62 EP MM DENISE 1971-07-04 06:00:00 TS 12.9015 -105.619 25 hurdat_epa main 644 644 O________OP___ hurdat_epa EP041971 12.9000 -105.600 TD 25 -1 12.9000 -105.600 TC 25 12.9076 -105.696 1 6 273
1971184N11262 1971 62 EP MM DENISE 1971-07-04 09:00:00 TS 12.9076 -105.974 main 661 661 P________PP___ EP041971 12.9073 -105.963 TD 35 0 12.9073 -105.963 TC 35 12.9090 -106.019 1 8 270
1971184N11262 1971 62 EP MM DENISE 1971-07-04 12:00:00 TS 12.9000 -106.400 45 hurdat_epa main 679 679 O________OO___ hurdat_epa EP041971 12.9000 -106.400 TS 45 0 12.9000 -106.400 TC 45 12.9000 -106.400 2 10 270
1971184N11262 1971 62 EP MM DENISE 1971-07-04 15:00:00 TS 12.9016 -106.966 main 711 711 P________PP___ EP041971 12.9000 -106.963 TS 45 0 12.9000 -106.963 TC 45 12.9078 -106.978 2 12 270
1971184N11262 1971 62 EP MM DENISE 1971-07-04 18:00:00 TS 12.9017 -107.604 45 hurdat_epa main 747 747 O________OP___ hurdat_epa EP041971 12.9000 -107.600 TS 45 0 12.9000 -107.600 TC 45 12.9084 -107.620 2 13 270
1971184N11262 1971 62 EP MM DENISE 1971-07-04 21:00:00 TS 12.9010 -108.274 main 793 793 P________PP___ EP041971 12.9001 -108.272 TS 45 0 12.9001 -108.272 TC 45 12.9047 -108.278 2 13 270
1971184N11262 1971 62 EP MM DENISE 1971-07-05 00:00:00 TS 12.9000 -108.900 45 hurdat_epa main 830 830 O________OO___ hurdat_epa EP041971 12.9000 -108.900 TS 45 0 12.9000 -108.900 TC 45 12.9000 -108.900 2 11 270
1971184N11262 1971 62 EP MM DENISE 1971-07-05 03:00:00 TS 12.9004 -109.381 main 859 859 P________PP___ EP041971 12.8997 -109.372 TS 45 0 12.8997 -109.372 TC 45 12.9033 -109.414 2 9 270
1971184N11262 1971 62 EP MM DENISE 1971-07-05 06:00:00 TS 12.9013 -109.817 45 hurdat_epa main 884 884 O________OP___ hurdat_epa EP041971 12.9000 -109.800 TS 45 0 12.9000 -109.800 TC 45 12.9065 -109.887 2 9 270
1971184N11262 1971 62 EP MM DENISE 1971-07-05 09:00:00 TS 12.9013 -110.302 main 917 917 P________PP___ EP041971 12.8999 -110.293 TS 52 0 12.8999 -110.293 TC 52 12.9065 -110.342 2 10 270
1971184N11262 1971 62 EP MM DENISE 1971-07-05 12:00:00 TS 12.9000 -110.800 60 hurdat_epa main 952 952 O________OO___ hurdat_epa EP041971 12.9000 -110.800 TS 60 0 12.9000 -110.800 TC 60 12.9000 -110.800 2 10 270
1971184N11262 1971 62 EP MM DENISE 1971-07-05 15:00:00 TS 12.9015 -111.295 main 989 989 P________PP___ EP041971 12.9074 -111.300 TS 60 0 12.9074 -111.300 TC 60 12.8777 -111.277 2 10 269
1971184N11262 1971 62 EP MM DENISE 1971-07-05 18:00:00 TS 12.8899 -111.793 60 hurdat_epa main 1027 1027 O________OP___ hurdat_epa EP041971 12.9000 -111.800 TS 60 0 12.9000 -111.800 TC 60 12.8493 -111.763 2 10 267
1971184N11262 1971 62 EP MM DENISE 1971-07-05 21:00:00 TS 12.8441 -112.282 main 1073 1073 P________PP___ EP041971 12.8498 -112.285 TS 60 0 12.8498 -112.285 TC 60 12.8213 -112.267 2 10 265
1971184N11262 1971 62 EP MM DENISE 1971-07-06 00:00:00 TS 12.8000 -112.800 60 hurdat_epa main 1112 1112 O________OO___ hurdat_epa EP041971 12.8000 -112.800 TS 60 0 12.8000 -112.800 TC 60 12.8000 -112.800 2 11 267
1971184N11262 1971 62 EP MM DENISE 1971-07-06 03:00:00 TS 12.7941 -113.383 main 1159 1159 P________PP___ EP041971 12.7925 -113.385 TS 60 0 12.7925 -113.385 TC 60 12.8009 -113.375 2 12 270
1971184N11262 1971 62 EP MM DENISE 1971-07-06 06:00:00 TS 12.8015 -113.995 60 hurdat_epa main 1206 1206 O________OP___ hurdat_epa EP041971 12.8000 -114.000 TS 60 0 12.8000 -114.000 TC 60 12.8074 -113.977 2 12 271
1971184N11262 1971 62 EP MM DENISE 1971-07-06 09:00:00 TS 12.8079 -114.598 main 1230 1230 P________PP___ EP041971 12.8074 -114.600 TS 60 0 12.8074 -114.600 TC 60 12.8102 -114.591 2 12 270
1971184N11262 1971 62 EP MM DENISE 1971-07-06 12:00:00 TS 12.8000 -115.200 60 hurdat_epa main 1256 1256 O________OO___ hurdat_epa EP041971 12.8000 -115.200 TS 60 0 12.8000 -115.200 TC 60 12.8000 -115.200 3 12 268
1971184N11262 1971 62 EP MM DENISE 1971-07-06 15:00:00 TS 12.7580 -115.807 main 1285 1285 P________PP___ EP041971 12.7574 -115.808 TS 65 1 12.7574 -115.808 TC 65 12.7602 -115.807 3 12 265
1971184N11262 1971 62 EP MM DENISE 1971-07-06 18:00:00 TS 12.7015 -116.401 70 hurdat_epa main 1326 1326 O________OP___ hurdat_epa EP041971 12.7000 -116.400 HU 70 1 12.7000 -116.400 TC 70 12.7074 -116.403 3 11 264
1971184N11262 1971 62 EP MM DENISE 1971-07-06 21:00:00 TS 12.6441 -116.972 main 1369 1369 P________PP___ EP041971 12.6424 -116.973 HU 70 1 12.6424 -116.973 TC 70 12.6509 -116.972 3 11 265
1971184N11262 1971 62 EP MM DENISE 1971-07-07 00:00:00 TS 12.6000 -117.500 70 hurdat_epa main 1398 1398 O________OO___ hurdat_epa EP041971 12.6000 -117.500 HU 70 1 12.6000 -117.500 TC 70 12.6000 -117.500 4 10 267
1971184N11262 1971 62 EP MM DENISE 1971-07-07 03:00:00 TS 12.5949 -117.965 main 1429 1429 P________PP___ EP041971 12.5999 -117.972 HU 70 1 12.5999 -117.972 TC 70 12.5749 -117.935 4 9 269
1971184N11262 1971 62 EP MM DENISE 1971-07-07 06:00:00 TS 12.5912 -118.387 70 hurdat_epa main 1454 1454 O________OP___ hurdat_epa EP041971 12.6000 -118.400 HU 70 1 12.6000 -118.400 TC 70 12.5561 -118.335 4 8 267
1971184N11262 1971 62 EP MM DENISE 1971-07-07 09:00:00 TS 12.5587 -118.770 main 1481 1481 P________PP___ EP041971 12.5647 -118.777 HU 70 1 12.5647 -118.777 TC 70 12.5343 -118.742 4 8 263
1971184N11262 1971 62 EP MM DENISE 1971-07-07 12:00:00 TS 12.5000 -119.200 70 hurdat_epa main 1516 1516 O________OO___ hurdat_epa EP041971 12.5000 -119.200 HU 70 1 12.5000 -119.200 TC 70 12.5000 -119.200 4 10 261
1971184N11262 1971 62 EP MM DENISE 1971-07-07 15:00:00 TS 12.4070 -119.759 main 1566 1566 P________PP___ EP041971 12.4000 -119.763 HU 75 1 12.4000 -119.763 TC 75 12.4350 -119.743 4 12 261
1971184N11262 1971 62 EP MM DENISE 1971-07-07 18:00:00 TS 12.3114 -120.389 80 963 hurdat_epa main 1617 1617 O________OP___ hurdat_epa EP041971 12.3000 -120.400 HU 80 963 1 12.3000 -120.400 TC 80 963 12.3570 -120.345 4 12 263
1971184N11262 1971 62 EP MM DENISE 1971-07-07 21:00:00 TS 12.2489 -121.022 main 1669 1669 P________PP___ EP041971 12.2423 -121.027 HU 80 1 12.2423 -121.027 TC 80 12.2754 -121.000 4 13 265
1971184N11262 1971 62 EP MM DENISE 1971-07-08 00:00:00 TS 12.2000 -121.700 80 hurdat_epa main 1722 1722 O________OO___ hurdat_epa EP041971 12.2000 -121.700 HU 80 1 12.2000 -121.700 TC 80 12.2000 -121.700 4 14 266
1971184N11262 1971 62 EP MM DENISE 1971-07-08 03:00:00 TS 12.1459 -122.426 main 1778 1778 P________PP___ EP041971 12.1498 -122.427 HU 80 1 12.1498 -122.427 TC 80 12.1303 -122.420 4 15 266
1971184N11262 1971 62 EP MM DENISE 1971-07-08 06:00:00 TS 12.0939 -123.197 80 hurdat_epa main 1830 1830 O________OP___ hurdat_epa EP041971 12.1000 -123.200 HU 80 1 12.1000 -123.200 TC 80 12.0695 -123.183 4 15 266
1971184N11262 1971 62 EP MM DENISE 1971-07-08 09:00:00 TS 12.0386 -123.984 main 1893 1893 P________PP___ EP041971 12.0423 -123.985 HU 80 1 12.0423 -123.985 TC 80 12.0239 -123.979 4 16 267
1971184N11262 1971 62 EP MM DENISE 1971-07-08 12:00:00 TS 12.0000 -124.800 80 hurdat_epa main 1950 1950 O________OO___ hurdat_epa EP041971 12.0000 -124.800 HU 80 1 12.0000 -124.800 TC 80 12.0000 -124.800 4 16 268
1971184N11262 1971 62 EP MM DENISE 1971-07-08 15:00:00 TS 11.9860 -125.641 main 2009 2009 P________PP___ EP041971 11.9848 -125.643 HU 95 2 11.9848 -125.643 TC 95 11.9909 -125.632 4 17 270
1971184N11262 1971 62 EP MM DENISE 1971-07-08 18:00:00 TS 12.0009 -126.497 110 951 hurdat_epa main 2076 2076 O________OP___ hurdat_epa EP041971 12.0000 -126.500 HU 110 951 3 12.0000 -126.500 TC 110 951 12.0045 -126.485 4 17 272
1971184N11262 1971 62 EP MM DENISE 1971-07-08 21:00:00 TS 12.0420 -127.349 main 2138 2138 P________PP___ EP041971 12.0422 -127.350 HU 110 3 12.0422 -127.350 TC 110 12.0408 -127.345 4 17 273
1971184N11262 1971 62 EP MM DENISE 1971-07-09 00:00:00 TS 12.1000 -128.200 110 hurdat_epa main 2202 2202 O________OO___ hurdat_epa EP041971 12.1000 -128.200 HU 110 3 12.1000 -128.200 TC 110 12.1000 -128.200 4 17 273
1971184N11262 1971 62 EP MM DENISE 1971-07-09 03:00:00 TS 12.1378 -129.057 main 2275 2275 P________PP___ EP041971 12.1348 -129.058 HU 115 4 12.1348 -129.058 TC 115 12.1496 -129.057 4 17 274
1971184N11262 1971 62 EP MM DENISE 1971-07-09 06:00:00 TS 12.2049 -129.901 120 hurdat_epa main 2325 2325 O________OP___ hurdat_epa EP041971 12.2000 -129.900 HU 120 4 12.2000 -129.900 TC 120 12.2247 -129.903 4 16 277
1971184N11262 1971 62 EP MM DENISE 1971-07-09 09:00:00 TS 12.3233 -130.723 main 2373 2373 P________PP___ EP041971 12.3198 -130.723 HU 120 4 12.3198 -130.723 TC 120 12.3373 -130.723 4 16 281
1971184N11262 1971 62 EP MM DENISE 1971-07-09 12:00:00 TS 12.5000 -131.500 120 hurdat_epa main 2414 2414 O________OO___ hurdat_epa EP041971 12.5000 -131.500 HU 120 4 12.5000 -131.500 TC 120 12.5000 -131.500 4 15 285
1971184N11262 1971 62 EP MM DENISE 1971-07-09 15:00:00 TS 12.7281 -132.218 main 2450 2446 P________PP___ EP041971 12.7273 -132.223 HU 110 3 12.7273 -132.223 TC 110 12.7314 -132.202 4 15 290
1971184N11262 1971 62 EP MM DENISE 1971-07-09 18:00:00 TS 13.0021 -132.893 100 hurdat_epa main 2446 2373 O________OP___ hurdat_epa EP041971 13.0000 -132.900 HU 100 3 13.0000 -132.900 TC 100 13.0106 -132.865 4 14 294
1971184N11262 1971 62 EP MM DENISE 1971-07-09 21:00:00 TS 13.3076 -133.538 main 2373 2291 P________PP___ EP041971 13.3072 -133.543 HU 100 3 13.3072 -133.543 TC 100 13.3095 -133.521 4 14 295
1971184N11262 1971 62 EP MM DENISE 1971-07-10 00:00:00 TS 13.6000 -134.200 100 hurdat_epa main 2291 2212 O________OO___ hurdat_epa EP041971 13.6000 -134.200 HU 100 3 13.6000 -134.200 TC 100 13.6000 -134.200 4 14 290
1971184N11262 1971 62 EP MM DENISE 1971-07-10 03:00:00 TS 13.8087 -134.929 main 2212 2123 P________PP___ EP041971 13.8073 -134.928 HU 100 3 13.8073 -134.928 TC 100 13.8143 -134.931 4 15 286
1971184N11262 1971 62 EP MM DENISE 1971-07-10 06:00:00 TS 14.0038 -135.698 100 hurdat_epa main 2123 2044 O________OP___ hurdat_epa EP041971 14.0000 -135.700 HU 100 3 14.0000 -135.700 TC 100 14.0190 -135.692 4 16 286
1971184N11262 1971 62 EP MM DENISE 1971-07-10 09:00:00 TS 14.2296 -136.479 main 2034 1942 P________PP___ EP041971 14.2272 -136.478 HU 100 3 14.2272 -136.478 TC 100 14.2391 -136.482 4 16 288
1971184N11262 1971 62 EP MM DENISE 1971-07-10 12:00:00 TS 14.5000 -137.300 100 hurdat_epa main 1942 1849 O________OO___ hurdat_epa EP041971 14.5000 -137.300 HU 100 3 14.5000 -137.300 TC 100 14.5000 -137.300 4 18 290
1971184N11262 1971 62 EP MM DENISE 1971-07-10 15:00:00 TS 14.8325 -138.194 main 1839 1733 P________PP___ EP041971 14.8274 -138.193 HU 100 3 14.8274 -138.193 TC 100 14.8530 -138.202 4 19 292
1971184N11262 1971 62 EP MM DENISE 1971-07-10 18:00:00 TS 15.2088 -139.105 100 hurdat_epa main 1733 1628 O________OP___ hurdat_epa EP041971 15.2000 -139.100 HU 100 3 15.2000 -139.100 TC 100 15.2439 -139.123 4 19 294
1971184N11262 1971 62 EP CP DENISE 1971-07-10 21:00:00 TS 15.6196 -140.003 main 1628 1543 P________PP___ EP041971 15.6150 -140.002 HU 97 3 15.6150 -140.002 TC 97 15.6376 -140.008 4 18 296
1971184N11262 1971 62 EP CP DENISE 1971-07-11 00:00:00 TS 15.9952 -140.781 95 hurdat_epa main 1533 1472 O________OO___ hurdat_epa EP041971 16.0000 -140.800 HU 95 2 16.0000 -140.800 TC 95 16.0000 -140.800 4 15 296
1971184N11262 1971 62 EP CP DENISE 1971-07-11 03:00:00 TS 16.2702 -141.376 main 1462 1404 P________PP___ EP041971 16.2720 -141.403 HU 95 2 16.2720 -141.403 TC 95 16.2881 -141.435 4 12 296
1971184N11262 1971 62 EP CP DENISE 1971-07-11 06:00:00 TS 16.5074 -141.886 95 hurdat_epa main 1404 1347 O________OP___ hurdat_epa EP041971 16.5000 -141.900 HU 95 2 16.5000 -141.900 TC 95 16.5427 -141.972 4 11 296
1971184N11262 1971 62 EP CP DENISE 1971-07-11 09:00:00 TS 16.7484 -142.411 main 1347 1287 P________PP___ EP041971 16.7499 -142.415 HU 92 2 16.7499 -142.415 TC 92 16.7760 -142.447 4 11 296
1971184N11262 1971 62 EP CP DENISE 1971-07-11 12:00:00 TS 16.9833 -142.917 90 hurdat_epa main 1287 1230 O________OO___ hurdat_epa EP041971 17.0000 -142.900 HU 90 2 17.0000 -142.900 TC 90 17.0000 -142.900 4 11 297
1971184N11262 1971 62 EP CP DENISE 1971-07-11 15:00:00 TS 17.2347 -143.393 main 1230 1181 P________PP___ EP041971 17.2573 -143.350 HU 82 1 17.2573 -143.350 TC 82 17.2715 -143.349 4 10 298
1971184N11262 1971 62 EP CP DENISE 1971-07-11 18:00:00 TS 17.4718 -143.865 75 hurdat_epa main 1170 1124 O________OP___ hurdat_epa EP041971 17.5000 -143.800 HU 75 1 17.5000 -143.800 TC 75 17.5305 -143.790 4 10 296
1971184N11262 1971 62 EP CP DENISE 1971-07-11 21:00:00 TS 17.6838 -144.348 main 1124 1060 P________PP___ EP041971 17.7222 -144.263 HU 72 1 17.7222 -144.263 TC 72 17.7494 -144.261 4 11 291
1971184N11262 1971 62 EP CP DENISE 1971-07-12 00:00:00 TS 17.8500 -144.900 70 hurdat_epa main 1057 993 O________OO___ hurdat_epa EP041971 17.9000 -144.800 HU 70 1 17.9000 -144.800 TC 70 17.9000 -144.800 4 12 285
1971184N11262 1971 62 EP CP DENISE 1971-07-12 03:00:00 TS 17.9850 -145.566 main 983 910 P________PP___ EP041971 18.0525 -145.462 HU 70 1 18.0525 -145.462 TC 70 17.9705 -145.417 4 13 278
1971184N11262 1971 62 EP CP DENISE 1971-07-12 06:00:00 TS 18.0281 -146.301 70 hurdat_epa main 910 838 O________OP___ hurdat_epa EP041971 18.1000 -146.200 HU 70 1 18.1000 -146.200 TC 70 17.9687 -146.108 4 14 268
1971184N11262 1971 62 EP CP DENISE 1971-07-12 09:00:00 TS 17.9467 -147.030 main 840 761 P________PP___ EP041971 17.9944 -146.913 HU 67 1 17.9944 -146.913 TC 67 17.9075 -146.870 4 15 260
1971184N11262 1971 62 EP CP DENISE 1971-07-12 12:00:00 TS 17.7833 -147.817 65 hurdat_epa main 761 677 O________OO___ hurdat_epa EP041971 17.8000 -147.700 HU 65 1 17.8000 -147.700 TC 65 17.8000 -147.700 2 16 258
1971184N11262 1971 62 EP CP DENISE 1971-07-12 15:00:00 TS 17.5947 -148.705 main 677 596 P________PP___ EP041971 17.5999 -148.620 HU 52 0 17.5999 -148.620 TC 52 17.6537 -148.648 2 18 257
1971184N11262 1971 62 EP CP DENISE 1971-07-12 18:00:00 TS 17.3946 -149.641 40 hurdat_epa main 596 521 O________OP___ hurdat_epa EP041971 17.4000 -149.600 TS 40 0 17.4000 -149.600 TC 40 17.4677 -149.647 2 18 258
1971184N11262 1971 62 EP CP DENISE 1971-07-12 21:00:00 TS 17.2185 -150.598 main 512 448 P________PP___ EP041971 17.2277 -150.602 TS 37 0 17.2277 -150.602 TC 37 17.2725 -150.623 2 18 260
1971184N11262 1971 62 EP CP DENISE 1971-07-13 00:00:00 TS 17.0833 -151.467 35 hurdat_epa main 439 399 O________OO___ hurdat_epa EP041971 17.1000 -151.500 TS 35 0 17.1000 -151.500 TC 35 17.1000 -151.500 2 15 262
1971184N11262 1971 62 EP CP DENISE 1971-07-13 03:00:00 TS 17.0193 -152.132 main 399 353 P________PP___ EP041971 17.0418 -152.160 TS 35 0 17.0418 -152.160 TC 35 17.0063 -152.198 2 12 265
1971184N11262 1971 62 EP CP DENISE 1971-07-13 06:00:00 TS 16.9733 -152.698 35 hurdat_epa main 353 329 O________OP___ hurdat_epa EP041971 17.0000 -152.700 TS 35 0 17.0000 -152.700 TC 35 16.9400 -152.791 2 11 263
1971184N11262 1971 62 EP CP DENISE 1971-07-13 09:00:00 TS 16.8859 -153.281 main 323 307 P________PP___ EP041971 16.9074 -153.273 TS 35 0 16.9074 -153.273 TC 35 16.8788 -153.313 2 11 260
1971184N11262 1971 62 EP CP DENISE 1971-07-13 12:00:00 TS 16.7870 -153.826 35 hurdat_epa main 307 287 O________OO___ hurdat_epa EP041971 16.8000 -153.800 TS 35 0 16.8000 -153.800 TC 35 16.8000 -153.800 2 10 259
1971184N11262 1971 62 EP CP DENISE 1971-07-13 15:00:00 TS 16.6989 -154.305 main 287 277 P________PP___ EP041971 16.7147 -154.257 TS 30 -1 16.7147 -154.257 TC 30 16.6861 -154.278 2 9 257
1971184N11262 1971 62 EP CP DENISE 1971-07-13 18:00:00 TS 16.5828 -154.760 25 hurdat_epa main 274 274 O________OP___ hurdat_epa EP041971 16.6000 -154.700 TD 25 -1 16.6000 -154.700 TC 25 16.5416 -154.754 2 9 251
1971184N11262 1971 62 EP CP DENISE 1971-07-13 21:00:00 TS 16.4115 -155.194 main 284 282 P________PP___ EP041971 16.4203 -155.185 TD 25 -1 16.4203 -155.185 TC 25 16.3762 -155.228 2 10 247
1971184N11262 1971 62 EP CP DENISE 1971-07-14 00:00:00 TS 16.2000 -155.700 25 hurdat_epa main 302 O________OO___ hurdat_epa EP041971 16.2000 -155.700 TD 25 -1 16.2000 -155.700 TC 25 16.2000 -155.700 2 11 247

IBTrACS Databaseについて

本データベースは、米国NOAAが公開する1842年以降の世界の熱帯低気圧のベストトラックデータアーカイブInternational Best Track Archive for Climate Stewardship (IBTrACS)を、ウェブで閲覧しやすい形式に変換したものです。

最終更新日:2021-12-03